createdAt,value
2018-09-29T00:01:26.201Z,95728.50
2018-09-29T00:03:55.504Z,95728.80
2018-09-29T00:06:25.922Z,95723.00
2018-09-29T00:08:55.297Z,95724.31
2018-09-29T00:11:24.568Z,95716.76
2018-09-29T00:13:53.875Z,95718.84
2018-09-29T00:16:23.209Z,95731.64
2018-09-29T00:18:52.559Z,95733.61
2018-09-29T00:21:21.938Z,95733.45
2018-09-29T00:23:51.539Z,95744.72
2018-09-29T00:26:20.967Z,95754.22
2018-09-29T00:28:50.321Z,95754.67
2018-09-29T00:31:19.719Z,95757.16
2018-09-29T00:33:49.059Z,95755.40
2018-09-29T00:36:18.404Z,95749.83
2018-09-29T00:38:47.739Z,95739.44
2018-09-29T00:41:17.110Z,95746.63
2018-09-29T00:43:46.488Z,95753.33
2018-09-29T00:46:15.828Z,95754.33
2018-09-29T00:48:45.164Z,95751.91
2018-09-29T00:51:14.491Z,95754.74
2018-09-29T00:53:43.877Z,95754.91
2018-09-29T00:56:13.395Z,95751.14
2018-09-29T00:58:42.748Z,95752.98
2018-09-29T01:01:12.067Z,95753.63
2018-09-29T01:03:41.797Z,95747.69
2018-09-29T01:06:11.129Z,95755.09
2018-09-29T01:08:40.646Z,95765.59
2018-09-29T01:11:09.955Z,95767.05
2018-09-29T01:13:39.352Z,95763.97
2018-09-29T01:16:08.774Z,95770.50
2018-09-29T01:18:39.008Z,95767.39
2018-09-29T01:21:10.318Z,95767.70
2018-09-29T01:23:39.897Z,95775.59
2018-09-29T01:26:09.310Z,95778.87
2018-09-29T01:28:38.780Z,95765.11
2018-09-29T01:31:08.445Z,95756.98
2018-09-29T01:33:37.820Z,95764.80
2018-09-29T01:36:07.259Z,95758.05
2018-09-29T01:38:36.662Z,95765.23
2018-09-29T01:41:06.037Z,95770.66
2018-09-29T01:43:35.434Z,95771.36
2018-09-29T01:46:04.784Z,95761.99
2018-09-29T01:48:34.084Z,95765.41
2018-09-29T01:51:03.379Z,95762.73
2018-09-29T01:53:32.690Z,95765.86
2018-09-29T01:56:02.036Z,95767.03
2018-09-29T01:58:31.379Z,95769.97
2018-09-29T02:01:00.714Z,95777.01
2018-09-29T02:03:30.068Z,95776.00
2018-09-29T02:05:59.403Z,95778.80
2018-09-29T02:08:28.697Z,95770.45
2018-09-29T02:10:57.962Z,95780.89
2018-09-29T02:13:27.319Z,95768.56
2018-09-29T02:15:56.698Z,95770.88
2018-09-29T02:18:26.046Z,95765.28
2018-09-29T02:20:55.432Z,95767.81
2018-09-29T02:23:24.782Z,95759.28
2018-09-29T02:25:54.216Z,95757.44
2018-09-29T02:28:23.542Z,95762.81
2018-09-29T02:30:52.835Z,95753.42
2018-09-29T02:33:22.119Z,95748.34
2018-09-29T02:35:51.399Z,95751.10
2018-09-29T02:38:20.709Z,95752.33
2018-09-29T02:40:50.032Z,95744.23
2018-09-29T02:43:19.328Z,95742.88
2018-09-29T02:45:48.630Z,95733.77
2018-09-29T02:48:17.959Z,95743.66
2018-09-29T02:50:47.318Z,95743.52
2018-09-29T02:53:16.882Z,95742.27
2018-09-29T02:55:46.236Z,95737.58
2018-09-29T02:58:15.543Z,95743.30
2018-09-29T03:00:44.953Z,95741.77
2018-09-29T03:03:14.241Z,95739.80
2018-09-29T03:05:43.574Z,95735.27
2018-09-29T03:08:12.934Z,95726.77
2018-09-29T03:10:42.255Z,95731.20
2018-09-29T03:13:11.586Z,95725.82
2018-09-29T03:15:40.902Z,95731.19
2018-09-29T03:18:10.298Z,95728.88
2018-09-29T03:20:39.653Z,95725.08
2018-09-29T03:23:09.020Z,95727.03
2018-09-29T03:25:38.351Z,95727.88
2018-09-29T03:28:07.647Z,95724.76
2018-09-29T03:30:38.243Z,95726.07
2018-09-29T03:33:07.520Z,95724.36
2018-09-29T03:35:36.917Z,95725.02
2018-09-29T03:38:06.609Z,95721.08
2018-09-29T03:40:35.942Z,95718.77
2018-09-29T03:43:05.427Z,95723.48
2018-09-29T03:45:34.767Z,95730.63
2018-09-29T03:48:04.149Z,95735.38
2018-09-29T03:50:33.458Z,95733.59
2018-09-29T03:53:02.820Z,95728.28
2018-09-29T03:55:32.155Z,95730.68
2018-09-29T03:58:01.484Z,95734.98
2018-09-29T04:00:31.004Z,95736.59
2018-09-29T04:03:00.280Z,95732.29
2018-09-29T04:05:29.564Z,95737.30
2018-09-29T04:07:58.996Z,95733.30
2018-09-29T04:10:28.327Z,95733.67
2018-09-29T04:12:57.888Z,95733.44
2018-09-29T04:15:27.305Z,95740.16
2018-09-29T04:17:56.623Z,95736.16
2018-09-29T04:20:25.976Z,95739.25
2018-09-29T04:22:55.266Z,95733.53
2018-09-29T04:25:24.561Z,95735.51
2018-09-29T04:27:53.941Z,95729.97
2018-09-29T04:30:23.307Z,95732.89
2018-09-29T04:32:52.782Z,95726.80
2018-09-29T04:35:22.119Z,95731.82
2018-09-29T04:37:51.811Z,95734.43
2018-09-29T04:40:21.147Z,95733.18
2018-09-29T04:42:50.457Z,95738.53
2018-09-29T04:45:19.842Z,95738.08
2018-09-29T04:47:49.196Z,95740.56
2018-09-29T04:50:18.725Z,95735.16
2018-09-29T04:52:48.067Z,95733.23
2018-09-29T04:55:17.416Z,95736.63
2018-09-29T04:57:46.771Z,95740.22
2018-09-29T05:00:16.138Z,95743.02
2018-09-29T05:02:45.539Z,95749.73
2018-09-29T05:05:14.862Z,95748.02
2018-09-29T05:07:44.148Z,95751.69
2018-09-29T05:10:13.476Z,95752.69
2018-09-29T05:12:42.833Z,95754.19
2018-09-29T05:15:12.227Z,95753.35
2018-09-29T05:17:41.510Z,95756.45
2018-09-29T05:20:10.892Z,95754.95
2018-09-29T05:22:40.202Z,95759.91
2018-09-29T05:25:09.584Z,95760.20
2018-09-29T05:27:38.875Z,95758.89
2018-09-29T05:30:10.565Z,95763.05
2018-09-29T05:32:39.873Z,95766.31
2018-09-29T05:35:08.944Z,95770.19
2018-09-29T05:37:38.268Z,95771.49
2018-09-29T05:40:07.650Z,95773.09
2018-09-29T05:42:37.035Z,95772.33
2018-09-29T05:45:06.391Z,95775.23
2018-09-29T05:47:35.683Z,95779.58
2018-09-29T05:50:05.035Z,95777.02
2018-09-29T05:52:34.415Z,95772.36
2018-09-29T05:55:03.730Z,95773.65
2018-09-29T05:57:33.124Z,95771.95
2018-09-29T06:00:02.508Z,95768.77
2018-09-29T06:02:31.888Z,95770.53
2018-09-29T06:05:01.195Z,95774.28
2018-09-29T06:07:30.665Z,95772.97
2018-09-29T06:09:59.744Z,95777.14
2018-09-29T06:12:29.152Z,95785.67
2018-09-29T06:14:58.467Z,95781.52
2018-09-29T06:17:27.812Z,95784.36
2018-09-29T06:19:57.160Z,95800.11
2018-09-29T06:22:26.507Z,95804.98
2018-09-29T06:24:56.173Z,95807.88
2018-09-29T06:27:25.626Z,95804.53
2018-09-29T06:29:55.025Z,95810.22
2018-09-29T06:32:24.410Z,95808.58
2018-09-29T06:34:53.847Z,95805.59
2018-09-29T06:37:23.229Z,95802.55
2018-09-29T06:39:52.624Z,95808.33
2018-09-29T06:42:22.100Z,95814.20
2018-09-29T06:44:51.483Z,95809.50
2018-09-29T06:47:20.899Z,95811.00
2018-09-29T06:49:50.291Z,95813.88
2018-09-29T06:52:19.923Z,95818.82
2018-09-29T06:54:49.257Z,95823.42
2018-09-29T06:57:18.574Z,95829.41
2018-09-29T06:59:47.968Z,95825.40
2018-09-29T07:02:17.431Z,95821.33
2018-09-29T07:04:46.712Z,95817.33
2018-09-29T07:07:16.087Z,95817.05
2018-09-29T07:09:45.426Z,95818.10
2018-09-29T07:12:14.862Z,95815.35
2018-09-29T07:14:44.175Z,95818.71
2018-09-29T07:17:13.480Z,95824.44
2018-09-29T07:19:42.772Z,95832.43
2018-09-29T07:22:12.115Z,95829.36
2018-09-29T07:24:41.420Z,95826.50
2018-09-29T07:27:10.738Z,95835.43
2018-09-29T07:29:40.144Z,95839.95
2018-09-29T07:32:09.459Z,95834.49
2018-09-29T07:34:38.759Z,95838.80
2018-09-29T07:37:08.040Z,95832.41
2018-09-29T07:39:38.626Z,95834.02
2018-09-29T07:42:08.519Z,95834.34
2018-09-29T07:44:37.849Z,95829.61
2018-09-29T07:47:07.303Z,95832.00
2018-09-29T07:49:36.652Z,95833.64
2018-09-29T07:52:06.081Z,95836.04
2018-09-29T07:54:35.398Z,95834.41
2018-09-29T07:57:04.736Z,95836.25
2018-09-29T07:59:34.226Z,95830.51
2018-09-29T08:02:03.591Z,95831.65
2018-09-29T08:04:32.931Z,95832.34
2018-09-29T08:07:02.270Z,95838.61
2018-09-29T08:09:31.683Z,95835.84
2018-09-29T08:12:01.050Z,95828.65
2018-09-29T08:14:30.333Z,95837.16
2018-09-29T08:16:59.652Z,95831.52
2018-09-29T08:19:29.025Z,95833.06
2018-09-29T08:21:58.348Z,95838.91
2018-09-29T08:24:27.703Z,95836.88
2018-09-29T08:26:56.981Z,95834.84
2018-09-29T08:29:26.278Z,95836.61
2018-09-29T08:31:55.674Z,95845.91
2018-09-29T08:34:24.988Z,95835.73
2018-09-29T08:36:54.612Z,95834.89
2018-09-29T08:39:25.144Z,95834.44
2018-09-29T08:41:54.484Z,95837.20
2018-09-29T08:44:23.770Z,95840.00
2018-09-29T08:46:53.190Z,95846.37
2018-09-29T08:49:22.406Z,95845.44
2018-09-29T08:51:51.772Z,95843.78
2018-09-29T08:54:21.074Z,95843.06
2018-09-29T08:56:50.528Z,95838.89
2018-09-29T08:59:19.882Z,95840.80
2018-09-29T09:01:49.175Z,95836.66
2018-09-29T09:04:18.540Z,95836.56
2018-09-29T09:06:47.862Z,95829.97
2018-09-29T09:09:17.220Z,95832.10
2018-09-29T09:11:46.552Z,95829.79
2018-09-29T09:14:15.844Z,95828.02
2018-09-29T09:16:45.214Z,95827.51
2018-09-29T09:19:14.563Z,95829.95
2018-09-29T09:21:43.885Z,95825.34
2018-09-29T09:24:13.307Z,95822.52
2018-09-29T09:26:42.584Z,95825.20
2018-09-29T09:29:11.931Z,95817.77
2018-09-29T09:31:41.250Z,95814.77
2018-09-29T09:34:10.611Z,95815.45
2018-09-29T09:36:40.071Z,95820.53
2018-09-29T09:39:11.852Z,95821.66
2018-09-29T09:41:41.349Z,95818.41
2018-09-29T09:44:10.702Z,95812.27
2018-09-29T09:46:40.111Z,95808.89
2018-09-29T09:49:09.461Z,95808.89
2018-09-29T09:51:40.088Z,95814.08
2018-09-29T09:54:09.499Z,95809.28
2018-09-29T09:56:38.924Z,95794.02
2018-09-29T09:59:08.315Z,95800.43
2018-09-29T10:01:42.806Z,95797.11
2018-09-29T10:04:12.111Z,95789.05
2018-09-29T10:06:41.560Z,95778.40
2018-09-29T10:09:12.677Z,95771.02
2018-09-29T10:11:42.772Z,95769.42
2018-09-29T10:14:12.197Z,95764.77
2018-09-29T10:16:41.480Z,95759.42
2018-09-29T10:19:11.127Z,95761.35
2018-09-29T10:21:40.469Z,95759.30
2018-09-29T10:24:09.883Z,95761.17
2018-09-29T10:26:39.215Z,95760.17
2018-09-29T10:29:08.513Z,95756.88
2018-09-29T10:31:38.151Z,95754.09
2018-09-29T10:34:07.644Z,95755.80
2018-09-29T10:36:36.974Z,95752.77
2018-09-29T10:39:10.037Z,95754.97
2018-09-29T10:41:39.743Z,95750.34
2018-09-29T10:44:09.630Z,95751.97
2018-09-29T10:46:38.887Z,95740.80
2018-09-29T10:49:08.236Z,95752.91
2018-09-29T10:51:37.536Z,95741.40
2018-09-29T10:54:06.842Z,95732.42
2018-09-29T10:56:36.226Z,95735.30
2018-09-29T10:59:05.629Z,95738.59
2018-09-29T11:01:34.972Z,95738.14
2018-09-29T11:04:04.357Z,95732.37
2018-09-29T11:06:33.670Z,95746.15
2018-09-29T11:09:03.944Z,95734.19
2018-09-29T11:11:33.875Z,95728.20
2018-09-29T11:14:03.311Z,95731.03
2018-09-29T11:16:32.719Z,95718.08
2018-09-29T11:19:02.095Z,95724.81
2018-09-29T11:21:31.442Z,95715.63
2018-09-29T11:24:00.893Z,95719.75
2018-09-29T11:26:30.214Z,95712.58
2018-09-29T11:28:59.638Z,95714.09
2018-09-29T11:31:29.135Z,95712.91
2018-09-29T11:33:59.276Z,95711.86
2018-09-29T11:36:28.619Z,95715.56
2018-09-29T11:38:58.021Z,95712.86
2018-09-29T11:41:27.412Z,95705.52
2018-09-29T11:43:56.799Z,95697.70
2018-09-29T11:46:26.202Z,95704.89
2018-09-29T11:48:55.585Z,95705.38
2018-09-29T11:51:24.859Z,95701.66
2018-09-29T11:53:54.187Z,95709.66
2018-09-29T11:56:23.604Z,95704.48
2018-09-29T11:58:52.943Z,95695.00
2018-09-29T12:01:22.301Z,95704.47
2018-09-29T12:03:51.692Z,95703.25
2018-09-29T12:06:21.061Z,95698.22
2018-09-29T12:08:51.484Z,95687.78
2018-09-29T12:11:20.838Z,95688.60
2018-09-29T12:13:50.260Z,95682.95
2018-09-29T12:16:19.596Z,95676.92
2018-09-29T12:18:48.901Z,95676.62
2018-09-29T12:21:18.278Z,95675.89
2018-09-29T12:23:47.603Z,95669.77
2018-09-29T12:26:16.970Z,95664.01
2018-09-29T12:28:46.361Z,95660.58
2018-09-29T12:31:15.746Z,95657.48
2018-09-29T12:33:45.116Z,95661.72
2018-09-29T12:36:14.487Z,95653.05
2018-09-29T12:38:43.962Z,95646.30
2018-09-29T12:41:13.838Z,95654.42
2018-09-29T12:43:43.178Z,95655.80
2018-09-29T12:46:12.515Z,95644.34
2018-09-29T12:48:41.830Z,95642.49
2018-09-29T12:51:11.217Z,95647.07
2018-09-29T12:53:40.627Z,95641.89
2018-09-29T12:56:10.100Z,95645.08
2018-09-29T12:58:39.409Z,95636.69
2018-09-29T13:01:08.836Z,95636.58
2018-09-29T13:03:38.290Z,95624.38
2018-09-29T13:06:07.943Z,95618.77
2018-09-29T13:08:37.264Z,95614.77
2018-09-29T13:11:06.828Z,95615.33
2018-09-29T13:13:36.463Z,95618.98
2018-09-29T13:16:05.799Z,95614.97
2018-09-29T13:18:35.096Z,95609.06
2018-09-29T13:21:04.451Z,95608.73
2018-09-29T13:23:33.815Z,95596.29
2018-09-29T13:26:03.206Z,95589.44
2018-09-29T13:28:32.567Z,95588.87
2018-09-29T13:31:01.924Z,95589.13
2018-09-29T13:33:31.332Z,95579.95
2018-09-29T13:36:00.694Z,95582.09
2018-09-29T13:38:30.068Z,95580.10
2018-09-29T13:40:59.440Z,95573.44
2018-09-29T13:43:28.755Z,95576.96
2018-09-29T13:45:58.210Z,95573.31
2018-09-29T13:48:27.799Z,95565.21
2018-09-29T13:50:57.266Z,95569.77
2018-09-29T13:53:26.669Z,95565.70
2018-09-29T13:55:56.097Z,95567.58
2018-09-29T13:58:25.475Z,95566.26
2018-09-29T14:00:54.818Z,95578.14
2018-09-29T14:03:24.236Z,95577.39
2018-09-29T14:05:53.606Z,95577.99
2018-09-29T14:08:22.959Z,95565.64
2018-09-29T14:10:52.380Z,95562.31
2018-09-29T14:13:21.794Z,95565.98
2018-09-29T14:15:51.229Z,95568.78
2018-09-29T14:18:20.602Z,95558.02
2018-09-29T14:20:49.928Z,95557.16
2018-09-29T14:23:19.431Z,95553.95
2018-09-29T14:25:48.743Z,95548.86
2018-09-29T14:28:18.154Z,95546.06
2018-09-29T14:30:47.578Z,95546.95
2018-09-29T14:33:16.915Z,95549.52
2018-09-29T14:35:46.306Z,95542.78
2018-09-29T14:38:15.652Z,95537.89
2018-09-29T14:40:44.971Z,95528.39
2018-09-29T14:43:14.629Z,95527.66
2018-09-29T14:45:43.979Z,95528.04
2018-09-29T14:48:13.393Z,95526.91
2018-09-29T14:50:42.862Z,95527.61
2018-09-29T14:53:12.165Z,95521.80
2018-09-29T14:55:41.555Z,95515.31
2018-09-29T14:58:10.887Z,95509.45
2018-09-29T15:00:40.642Z,95516.27
2018-09-29T15:03:10.079Z,95517.13
2018-09-29T15:05:39.479Z,95503.79
2018-09-29T15:08:08.899Z,95507.55
2018-09-29T15:10:38.397Z,95500.31
2018-09-29T15:13:07.815Z,95501.11
2018-09-29T15:15:37.182Z,95502.59
2018-09-29T15:18:06.574Z,95499.68
2018-09-29T15:20:36.049Z,95497.16
2018-09-29T15:23:05.199Z,95496.72
2018-09-29T15:25:34.632Z,95495.51
2018-09-29T15:28:04.051Z,95490.19
2018-09-29T15:30:33.480Z,95487.78
2018-09-29T15:33:02.881Z,95487.09
2018-09-29T15:35:32.195Z,95492.77
2018-09-29T15:38:01.523Z,95493.19
2018-09-29T15:40:30.906Z,95496.19
2018-09-29T15:43:00.389Z,95489.95
2018-09-29T15:45:29.587Z,95494.98
2018-09-29T15:47:58.947Z,95486.20
2018-09-29T15:50:28.301Z,95482.98
2018-09-29T15:52:57.659Z,95495.23
2018-09-29T15:55:27.072Z,95491.63
2018-09-29T15:57:56.459Z,95496.70
2018-09-29T16:00:25.842Z,95486.85
2018-09-29T16:02:55.195Z,95486.91
2018-09-29T16:05:24.551Z,95490.27
2018-09-29T16:07:53.952Z,95483.11
2018-09-29T16:10:23.314Z,95485.14
2018-09-29T16:12:52.696Z,95481.73
2018-09-29T16:15:22.121Z,95483.76
2018-09-29T16:17:51.497Z,95487.62
2018-09-29T16:20:20.899Z,95488.72
2018-09-29T16:22:50.260Z,95488.65
2018-09-29T16:25:19.615Z,95488.64
2018-09-29T16:27:48.975Z,95486.06
2018-09-29T16:30:18.336Z,95486.64
2018-09-29T16:32:47.666Z,95497.52
2018-09-29T16:35:17.093Z,95490.79
2018-09-29T16:37:46.438Z,95494.47
2018-09-29T16:40:15.781Z,95502.20
2018-09-29T16:42:45.126Z,95506.50
2018-09-29T16:45:14.587Z,95507.34
2018-09-29T16:47:44.030Z,95507.50
2018-09-29T16:50:13.411Z,95506.03
2018-09-29T16:52:42.830Z,95508.17
2018-09-29T16:55:12.215Z,95513.92
2018-09-29T16:57:41.511Z,95511.63
2018-09-29T17:00:10.887Z,95518.70
2018-09-29T17:02:40.224Z,95515.22
2018-09-29T17:05:09.566Z,95519.16
2018-09-29T17:07:38.979Z,95518.12
2018-09-29T17:10:08.353Z,95516.95
2018-09-29T17:12:37.649Z,95520.19
2018-09-29T17:15:07.056Z,95521.13
2018-09-29T17:17:36.486Z,95521.91
2018-09-29T17:20:05.818Z,95525.45
2018-09-29T17:22:35.188Z,95520.66
2018-09-29T17:25:04.558Z,95526.66
2018-09-29T17:27:34.045Z,95522.80
2018-09-29T17:30:03.452Z,95520.14
2018-09-29T17:32:32.950Z,95516.42
2018-09-29T17:35:02.274Z,95519.04
2018-09-29T17:37:31.615Z,95521.31
2018-09-29T17:40:00.994Z,95525.99
2018-09-29T17:42:30.347Z,95522.28
2018-09-29T17:44:59.650Z,95528.31
2018-09-29T17:47:29.098Z,95524.78
2018-09-29T17:49:58.443Z,95525.47
2018-09-29T17:52:27.747Z,95519.14
2018-09-29T17:54:57.141Z,95524.95
2018-09-29T17:57:26.734Z,95527.81
2018-09-29T17:59:56.041Z,95525.48
2018-09-29T18:02:25.370Z,95521.74
2018-09-29T18:04:54.727Z,95524.48
2018-09-29T18:07:24.061Z,95523.00
2018-09-29T18:09:53.358Z,95523.90
2018-09-29T18:12:22.675Z,95518.59
2018-09-29T18:14:52.405Z,95522.23
2018-09-29T18:17:23.807Z,95513.02
2018-09-29T18:19:53.157Z,95511.03
2018-09-29T18:22:22.512Z,95514.38
2018-09-29T18:24:51.844Z,95516.21
2018-09-29T18:27:21.278Z,95513.50
2018-09-29T18:29:50.588Z,95510.09
2018-09-29T18:32:19.958Z,95510.75
2018-09-29T18:34:49.307Z,95508.66
2018-09-29T18:37:19.010Z,95518.47
2018-09-29T18:39:48.264Z,95519.41
2018-09-29T18:42:17.662Z,95513.67
2018-09-29T18:44:47.201Z,95516.95
2018-09-29T18:47:16.455Z,95518.09
2018-09-29T18:49:45.791Z,95514.12
2018-09-29T18:52:15.131Z,95516.11
2018-09-29T18:54:44.430Z,95512.19
2018-09-29T18:57:14.113Z,95517.64
2018-09-29T18:59:43.444Z,95518.24
2018-09-29T19:02:12.766Z,95516.79
2018-09-29T19:04:42.141Z,95519.08
2018-09-29T19:07:11.435Z,95514.81
2018-09-29T19:09:40.788Z,95505.60
2018-09-29T19:12:10.155Z,95513.16
2018-09-29T19:14:39.465Z,95509.78
2018-09-29T19:17:08.904Z,95507.84
2018-09-29T19:19:38.224Z,95506.11
2018-09-29T19:22:07.607Z,95504.77
2018-09-29T19:24:37.020Z,95503.87
2018-09-29T19:27:06.352Z,95509.09
2018-09-29T19:29:35.679Z,95509.02
2018-09-29T19:32:05.280Z,95504.23
2018-09-29T19:34:34.678Z,95506.17
2018-09-29T19:37:04.021Z,95507.76
2018-09-29T19:39:33.403Z,95502.19
2018-09-29T19:42:02.773Z,95500.20
2018-09-29T19:44:32.504Z,95490.25
2018-09-29T19:47:01.836Z,95489.19
2018-09-29T19:49:31.130Z,95487.41
2018-09-29T19:52:00.434Z,95481.56
2018-09-29T19:54:29.735Z,95478.84
2018-09-29T19:56:59.109Z,95475.63
2018-09-29T19:59:28.495Z,95474.17
2018-09-29T20:01:57.839Z,95481.39
2018-09-29T20:04:27.267Z,95475.42
2018-09-29T20:06:56.770Z,95474.37
2018-09-29T20:09:26.103Z,95475.40
2018-09-29T20:11:55.527Z,95471.98
2018-09-29T20:14:24.888Z,95469.45
2018-09-29T20:16:54.256Z,95473.01
2018-09-29T20:19:23.636Z,95472.44
2018-09-29T20:21:53.116Z,95469.21
2018-09-29T20:24:22.437Z,95465.28
2018-09-29T20:26:51.737Z,95473.16
2018-09-29T20:29:21.083Z,95470.81
2018-09-29T20:31:50.520Z,95470.37
2018-09-29T20:34:19.811Z,95468.00
2018-09-29T20:36:49.123Z,95461.69
2018-09-29T20:39:18.438Z,95463.20
2018-09-29T20:41:47.723Z,95452.45
2018-09-29T20:44:17.060Z,95466.78
2018-09-29T20:46:46.402Z,95468.47
2018-09-29T20:49:15.817Z,95459.86
2018-09-29T20:51:45.120Z,95460.06
2018-09-29T20:54:14.483Z,95461.91
2018-09-29T20:56:43.794Z,95460.75
2018-09-29T20:59:13.112Z,95458.14
2018-09-29T21:01:42.402Z,95450.65
2018-09-29T21:04:11.743Z,95449.61
2018-09-29T21:06:41.068Z,95445.26
2018-09-29T21:09:10.388Z,95441.56
2018-09-29T21:11:39.721Z,95436.62
2018-09-29T21:14:09.005Z,95437.66
2018-09-29T21:16:38.274Z,95439.70
2018-09-29T21:19:07.605Z,95440.73
2018-09-29T21:21:36.930Z,95438.66
2018-09-29T21:24:06.265Z,95438.53
2018-09-29T21:26:35.599Z,95440.41
2018-09-29T21:29:04.939Z,95440.67
2018-09-29T21:31:34.302Z,95435.78
2018-09-29T21:34:03.658Z,95440.35
2018-09-29T21:36:32.973Z,95433.53
2018-09-29T21:39:02.275Z,95435.36
2018-09-29T21:41:31.621Z,95437.64
2018-09-29T21:44:00.936Z,95432.59
2018-09-29T21:46:30.249Z,95439.41
2018-09-29T21:48:59.557Z,95439.98
2018-09-29T21:51:28.865Z,95437.91
2018-09-29T21:53:58.200Z,95435.95
2018-09-29T21:56:27.505Z,95437.77
2018-09-29T21:58:56.806Z,95433.91
2018-09-29T22:01:32.461Z,95431.38
2018-09-29T22:04:02.739Z,95427.16
2018-09-29T22:06:33.184Z,95421.23
2018-09-29T22:09:02.542Z,95422.86
2018-09-29T22:11:31.896Z,95421.19
2018-09-29T22:14:01.227Z,95422.60
2018-09-29T22:16:30.588Z,95415.36
2018-09-29T22:18:59.938Z,95415.89
2018-09-29T22:21:29.275Z,95418.02
2018-09-29T22:23:58.592Z,95412.59
2018-09-29T22:26:27.892Z,95410.94
2018-09-29T22:28:57.221Z,95410.11
2018-09-29T22:31:26.549Z,95404.84
2018-09-29T22:33:55.880Z,95401.20
2018-09-29T22:36:25.235Z,95401.88
2018-09-29T22:38:54.558Z,95401.78
2018-09-29T22:41:24.180Z,95398.70
2018-09-29T22:43:53.511Z,95395.80
2018-09-29T22:46:22.844Z,95392.59
2018-09-29T22:48:52.262Z,95397.87
2018-09-29T22:51:21.594Z,95389.83
2018-09-29T22:53:50.912Z,95388.84
2018-09-29T22:56:20.265Z,95392.67
2018-09-29T22:58:49.516Z,95393.80
2018-09-29T23:01:18.811Z,95387.28
2018-09-29T23:03:48.142Z,95386.84
2018-09-29T23:06:17.512Z,95392.31
2018-09-29T23:08:46.862Z,95391.77
2018-09-29T23:11:16.199Z,95384.47
2018-09-29T23:13:45.560Z,95381.63
2018-09-29T23:16:14.983Z,95381.63
2018-09-29T23:18:44.351Z,95377.06
2018-09-29T23:21:13.724Z,95376.95
2018-09-29T23:23:43.043Z,95374.80
2018-09-29T23:26:12.351Z,95375.43
2018-09-29T23:28:41.727Z,95375.00
2018-09-29T23:31:11.066Z,95375.86
2018-09-29T23:33:40.366Z,95368.98
2018-09-29T23:36:09.722Z,95379.50
2018-09-29T23:38:39.393Z,95377.74
2018-09-29T23:41:08.694Z,95370.44
2018-09-29T23:43:38.035Z,95370.91
2018-09-29T23:46:07.343Z,95373.61
2018-09-29T23:48:36.699Z,95371.21
2018-09-29T23:51:06.004Z,95371.90
2018-09-29T23:53:35.331Z,95374.86
2018-09-29T23:56:04.680Z,95370.52
2018-09-29T23:58:34.070Z,95374.29
